Terminal Aerodrome Forecast
Issued by NWS Charleston, WV

Current Version | Previous Version | Graphics & Text | Print | Product List | Glossary On
Versions: 1 2 3 4 5 6 7 8 9 10 11 12 13 14 15 16 17 18 19 20 21 22 23 24 25 26
522
FTUS41 KRLX 291955 AAA
TAFBKW
TAF AMD
KBKW 291955Z 2920/3018 24008KT P6SM SKC
     FM300300 20006KT P6SM SCT150
     FM300900 17009KT P6SM BKN100
     FM301700 20011G17KT P6SM SCT025 BKN050=

USA.gov is the U.S. government's official web portal to all federal, state and local government web resources and services.